VCP789 EDDW-ENZV
Flight info
| Callsign | VCP789 |
|---|---|
| Flight time | 1h 2m |
| Altitude | 40000 |
| Route | WSN1L WSN Y850 MUBZI M105 OMWEG DCT BADOS DCT ATTUS DCT RIVEX |
| Aircraft | E190/M-SDE3GILORVW/S |
Departure
| Time | 2026-04-12 10:35 |
|---|---|
| Airport | Bremen Airport (EDDW) |
Arrival
| Time | 2026-04-12 11:38 |
|---|---|
| Airport | Stavanger Airport, Sola (ENZV) |
| Time | Latitude | Longitude | Altitude | Speed | Heading |
|---|---|---|---|---|---|
| 2026-04-12 09:58 | 53.05047 | 8.78407 | 12 ft | 0 kts | 229° |
| 2026-04-12 10:21 | 53.05056 | 8.78425 | 12 ft | 2 kts | 229° |
| 2026-04-12 10:21 | 53.05066 | 8.78444 | 13 ft | 2 kts | 229° |
| 2026-04-12 10:21 | 53.05076 | 8.78463 | 13 ft | 1 kts | 229° |
| 2026-04-12 10:21 | 53.05082 | 8.78474 | 14 ft | 1 kts | 210° |
| 2026-04-12 10:22 | 53.05096 | 8.78477 | 14 ft | 2 kts | 162° |
| 2026-04-12 10:22 | 53.05104 | 8.78471 | 15 ft | 0 kts | 135° |
| 2026-04-12 10:22 | 53.05108 | 8.78464 | 15 ft | 0 kts | 138° |
| 2026-04-12 10:27 | 53.05106 | 8.78467 | 15 ft | 1 kts | 137° |
| 2026-04-12 10:27 | 53.05092 | 8.78487 | 14 ft | 3 kts | 140° |
| 2026-04-12 10:28 | 53.05063 | 8.78527 | 14 ft | 7 kts | 140° |
| 2026-04-12 10:28 | 53.05015 | 8.78598 | 12 ft | 11 kts | 138° |
| 2026-04-12 10:28 | 53.04941 | 8.78652 | 10 ft | 10 kts | 176° |
| 2026-04-12 10:28 | 53.04868 | 8.78685 | 9 ft | 12 kts | 132° |
| 2026-04-12 10:29 | 53.04853 | 8.78828 | 9 ft | 13 kts | 88° |
| 2026-04-12 10:29 | 53.04856 | 8.78980 | 11 ft | 12 kts | 88° |
| 2026-04-12 10:29 | 53.04860 | 8.79129 | 13 ft | 13 kts | 87° |
| 2026-04-12 10:29 | 53.04864 | 8.79286 | 14 ft | 13 kts | 88° |
| 2026-04-12 10:30 | 53.04868 | 8.79444 | 17 ft | 13 kts | 87° |
| 2026-04-12 10:30 | 53.04870 | 8.79601 | 18 ft | 14 kts | 88° |
| 2026-04-12 10:30 | 53.04874 | 8.79763 | 21 ft | 13 kts | 88° |
| 2026-04-12 10:30 | 53.04878 | 8.79929 | 21 ft | 15 kts | 88° |
| 2026-04-12 10:31 | 53.04882 | 8.80113 | 21 ft | 13 kts | 87° |
| 2026-04-12 10:31 | 53.04886 | 8.80271 | 20 ft | 9 kts | 89° |
| 2026-04-12 10:31 | 53.04886 | 8.80362 | 20 ft | 7 kts | 96° |
| 2026-04-12 10:31 | 53.04883 | 8.80378 | 20 ft | 0 kts | 110° |
| 2026-04-12 10:32 | 53.04877 | 8.80400 | 19 ft | 3 kts | 118° |
| 2026-04-12 10:32 | 53.04850 | 8.80444 | 18 ft | 7 kts | 152° |
| 2026-04-12 10:32 | 53.04794 | 8.80461 | 18 ft | 8 kts | 178° |
| 2026-04-12 10:33 | 53.04768 | 8.80462 | 18 ft | 1 kts | 178° |
| 2026-04-12 10:33 | 53.04751 | 8.80463 | 18 ft | 3 kts | 177° |
| 2026-04-12 10:33 | 53.04728 | 8.80435 | 18 ft | 5 kts | 252° |
| 2026-04-12 10:33 | 53.04726 | 8.80413 | 18 ft | 0 kts | 265° |
| 2026-04-12 10:34 | 53.04726 | 8.80406 | 18 ft | 10 kts | 265° |
| 2026-04-12 10:34 | 53.04715 | 8.79757 | 19 ft | 97 kts | 264° |
| 2026-04-12 10:34 | 53.04677 | 8.78259 | 63 ft | 156 kts | 266° |
| 2026-04-12 10:35 | 53.04617 | 8.76312 | 531 ft | 184 kts | 267° |
| 2026-04-12 10:35 | 53.04585 | 8.74218 | 1522 ft | 185 kts | 267° |
| 2026-04-12 10:35 | 53.04620 | 8.72048 | 2371 ft | 201 kts | 286° |
| 2026-04-12 10:35 | 53.05456 | 8.70207 | 2815 ft | 211 kts | 323° |
| 2026-04-12 10:36 | 53.06721 | 8.68805 | 3242 ft | 223 kts | 325° |
| 2026-04-12 10:36 | 53.08293 | 8.67938 | 3608 ft | 256 kts | 360° |
| 2026-04-12 10:36 | 53.10035 | 8.68763 | 3974 ft | 267 kts | 25° |
| 2026-04-12 10:36 | 53.11713 | 8.70128 | 3983 ft | 269 kts | 25° |
| 2026-04-12 10:37 | 53.13430 | 8.71468 | 4221 ft | 286 kts | 24° |
| 2026-04-12 10:37 | 53.15250 | 8.72855 | 5294 ft | 289 kts | 23° |
| 2026-04-12 10:37 | 53.17035 | 8.74202 | 6599 ft | 282 kts | 23° |
| 2026-04-12 10:37 | 53.18789 | 8.75518 | 7783 ft | 280 kts | 22° |
| 2026-04-12 10:38 | 53.20566 | 8.76848 | 8531 ft | 287 kts | 22° |
| 2026-04-12 10:38 | 53.22398 | 8.78219 | 9273 ft | 292 kts | 22° |
| 2026-04-12 10:38 | 53.24286 | 8.79633 | 10024 ft | 296 kts | 22° |
| 2026-04-12 10:38 | 53.26189 | 8.81060 | 10759 ft | 306 kts | 22° |
| 2026-04-12 10:39 | 53.28148 | 8.82529 | 11501 ft | 319 kts | 22° |
| 2026-04-12 10:39 | 53.30221 | 8.84086 | 12248 ft | 329 kts | 22° |
| 2026-04-12 10:39 | 53.32313 | 8.85659 | 12964 ft | 338 kts | 22° |
| 2026-04-12 10:39 | 53.34486 | 8.87293 | 13748 ft | 343 kts | 21° |
| 2026-04-12 10:40 | 53.36684 | 8.88860 | 14544 ft | 350 kts | 20° |
| 2026-04-12 10:40 | 53.38944 | 8.90461 | 15352 ft | 358 kts | 20° |
| 2026-04-12 10:40 | 53.41227 | 8.92079 | 16159 ft | 364 kts | 21° |
| 2026-04-12 10:40 | 53.43603 | 8.93765 | 16968 ft | 372 kts | 20° |
| 2026-04-12 10:41 | 53.45987 | 8.95460 | 17761 ft | 376 kts | 20° |
| 2026-04-12 10:41 | 53.48404 | 8.97180 | 18561 ft | 384 kts | 21° |
| 2026-04-12 10:41 | 53.50851 | 8.98924 | 19359 ft | 389 kts | 20° |
| 2026-04-12 10:41 | 53.53356 | 9.00738 | 20166 ft | 397 kts | 24° |
| 2026-04-12 10:42 | 53.55706 | 9.03275 | 20960 ft | 405 kts | 34° |
| 2026-04-12 10:42 | 53.58001 | 9.06020 | 21751 ft | 411 kts | 34° |
| 2026-04-12 10:42 | 53.60338 | 9.08816 | 22519 ft | 416 kts | 33° |
| 2026-04-12 10:42 | 53.62704 | 9.11647 | 23247 ft | 423 kts | 33° |
| 2026-04-12 10:43 | 53.67548 | 9.17457 | 24687 ft | 434 kts | 33° |
| 2026-04-12 10:43 | 53.70015 | 9.20422 | 25320 ft | 441 kts | 32° |
| 2026-04-12 10:43 | 53.72526 | 9.23445 | 25927 ft | 449 kts | 32° |
| 2026-04-12 10:44 | 53.75068 | 9.26510 | 26522 ft | 456 kts | 32° |
| 2026-04-12 10:44 | 53.77668 | 9.29650 | 27205 ft | 460 kts | 32° |
| 2026-04-12 10:44 | 53.80258 | 9.32772 | 27764 ft | 466 kts | 30° |
| 2026-04-12 10:44 | 53.83062 | 9.35497 | 28330 ft | 466 kts | 20° |
| 2026-04-12 10:45 | 53.85985 | 9.37861 | 28941 ft | 470 kts | 19° |
| 2026-04-12 10:45 | 53.88945 | 9.40272 | 29521 ft | 475 kts | 19° |
| 2026-04-12 10:45 | 53.91930 | 9.42624 | 30051 ft | 477 kts | 13° |
| 2026-04-12 10:45 | 53.95088 | 9.44292 | 30583 ft | 471 kts | 3° |
| 2026-04-12 10:46 | 53.98297 | 9.45072 | 31037 ft | 466 kts | 352° |
| 2026-04-12 10:46 | 54.01468 | 9.44964 | 31674 ft | 456 kts | 344° |
| 2026-04-12 10:46 | 54.04640 | 9.44666 | 32307 ft | 454 kts | 341° |
| 2026-04-12 10:46 | 54.07669 | 9.43661 | 33025 ft | 438 kts | 331° |
| 2026-04-12 10:47 | 54.10451 | 9.41852 | 33858 ft | 416 kts | 320° |
| 2026-04-12 10:47 | 54.12855 | 9.39401 | 34543 ft | 398 kts | 310° |
| 2026-04-12 10:47 | 54.14905 | 9.36427 | 35102 ft | 388 kts | 307° |
| 2026-04-12 10:47 | 54.17072 | 9.33664 | 35373 ft | 393 kts | 313° |
| 2026-04-12 10:48 | 54.21775 | 9.28740 | 35422 ft | 402 kts | 316° |
| 2026-04-12 10:48 | 54.26614 | 9.23902 | 35468 ft | 407 kts | 317° |
| 2026-04-12 10:49 | 54.31495 | 9.19035 | 35538 ft | 409 kts | 317° |
| 2026-04-12 10:49 | 54.36407 | 9.14143 | 35659 ft | 413 kts | 320° |
| 2026-04-12 10:50 | 54.39122 | 9.12100 | 35693 ft | 426 kts | 328° |
| 2026-04-12 10:50 | 54.41891 | 9.10306 | 35730 ft | 427 kts | 327° |
| 2026-04-12 10:50 | 54.47435 | 9.06664 | 35835 ft | 428 kts | 327° |
| 2026-04-12 10:51 | 54.52978 | 9.03003 | 35926 ft | 428 kts | 328° |
| 2026-04-12 10:51 | 54.58527 | 8.99325 | 36008 ft | 429 kts | 328° |
| 2026-04-12 10:52 | 54.64065 | 8.95644 | 36076 ft | 429 kts | 328° |
| 2026-04-12 10:52 | 54.69669 | 8.91908 | 36073 ft | 433 kts | 328° |
| 2026-04-12 10:53 | 54.75243 | 8.88182 | 36181 ft | 432 kts | 328° |
| 2026-04-12 10:53 | 54.80814 | 8.84447 | 36268 ft | 431 kts | 328° |
| 2026-04-12 10:54 | 54.86395 | 8.80693 | 36284 ft | 433 kts | 329° |
| 2026-04-12 10:54 | 54.92065 | 8.77033 | 36351 ft | 437 kts | 332° |
| 2026-04-12 10:55 | 54.97783 | 8.73728 | 36437 ft | 437 kts | 332° |
| 2026-04-12 10:55 | 55.00683 | 8.72031 | 36569 ft | 442 kts | 332° |
| 2026-04-12 10:55 | 55.03596 | 8.70329 | 36793 ft | 442 kts | 332° |
| 2026-04-12 10:56 | 55.06504 | 8.68625 | 37007 ft | 442 kts | 333° |
| 2026-04-12 10:56 | 55.09395 | 8.66927 | 37203 ft | 444 kts | 333° |
| 2026-04-12 10:56 | 55.12342 | 8.65195 | 37430 ft | 445 kts | 333° |
| 2026-04-12 10:56 | 55.15256 | 8.63479 | 37601 ft | 446 kts | 334° |
| 2026-04-12 10:57 | 55.18176 | 8.61758 | 37789 ft | 444 kts | 334° |
| 2026-04-12 10:57 | 55.21069 | 8.60049 | 37981 ft | 443 kts | 334° |
| 2026-04-12 10:57 | 55.23986 | 8.58322 | 38178 ft | 446 kts | 334° |
| 2026-04-12 10:57 | 55.26925 | 8.56580 | 38363 ft | 447 kts | 335° |
| 2026-04-12 10:58 | 55.29893 | 8.54819 | 38565 ft | 448 kts | 335° |
| 2026-04-12 10:58 | 55.32797 | 8.53094 | 38762 ft | 447 kts | 335° |
| 2026-04-12 10:58 | 55.35742 | 8.51339 | 38957 ft | 448 kts | 335° |
| 2026-04-12 10:58 | 55.38675 | 8.49591 | 39150 ft | 447 kts | 336° |
| 2026-04-12 10:59 | 55.41609 | 8.47840 | 39363 ft | 446 kts | 336° |
| 2026-04-12 10:59 | 55.44530 | 8.46093 | 39562 ft | 443 kts | 336° |
| 2026-04-12 10:59 | 55.47448 | 8.44344 | 39769 ft | 446 kts | 336° |
| 2026-04-12 10:59 | 55.50355 | 8.42600 | 39980 ft | 445 kts | 336° |
| 2026-04-12 11:00 | 55.56228 | 8.39068 | 40004 ft | 445 kts | 336° |
| 2026-04-12 11:00 | 55.62030 | 8.35567 | 40016 ft | 444 kts | 336° |
| 2026-04-12 11:01 | 55.67837 | 8.32054 | 40012 ft | 443 kts | 335° |
| 2026-04-12 11:01 | 55.73689 | 8.28500 | 40009 ft | 446 kts | 335° |
| 2026-04-12 11:02 | 55.79521 | 8.24948 | 40006 ft | 445 kts | 336° |
| 2026-04-12 11:02 | 55.85328 | 8.21401 | 40007 ft | 443 kts | 335° |
| 2026-04-12 11:03 | 55.91136 | 8.17840 | 40012 ft | 446 kts | 336° |
| 2026-04-12 11:03 | 55.96957 | 8.14262 | 40001 ft | 444 kts | 335° |
| 2026-04-12 11:04 | 56.02777 | 8.10672 | 40004 ft | 443 kts | 335° |
| 2026-04-12 11:04 | 56.08576 | 8.07083 | 40005 ft | 444 kts | 335° |
| 2026-04-12 11:05 | 56.14386 | 8.03477 | 39999 ft | 445 kts | 335° |
| 2026-04-12 11:05 | 56.20176 | 7.99871 | 39997 ft | 444 kts | 336° |
| 2026-04-12 11:06 | 56.26014 | 7.96224 | 40000 ft | 445 kts | 336° |
| 2026-04-12 11:06 | 56.31860 | 7.92558 | 40001 ft | 447 kts | 336° |
| 2026-04-12 11:07 | 56.37658 | 7.88913 | 39998 ft | 446 kts | 336° |
| 2026-04-12 11:07 | 56.43496 | 7.85230 | 39991 ft | 447 kts | 336° |
| 2026-04-12 11:08 | 56.49337 | 7.81533 | 39987 ft | 447 kts | 336° |
| 2026-04-12 11:08 | 56.55172 | 7.77829 | 39985 ft | 446 kts | 336° |
| 2026-04-12 11:09 | 56.61003 | 7.74114 | 39983 ft | 447 kts | 336° |
| 2026-04-12 11:09 | 56.66854 | 7.70374 | 39982 ft | 448 kts | 336° |
| 2026-04-12 11:10 | 56.72721 | 7.66612 | 39984 ft | 447 kts | 336° |
| 2026-04-12 11:10 | 56.78567 | 7.62850 | 39981 ft | 447 kts | 336° |
| 2026-04-12 11:11 | 56.84409 | 7.59078 | 39977 ft | 447 kts | 336° |
| 2026-04-12 11:11 | 56.90257 | 7.55290 | 39974 ft | 448 kts | 337° |
| 2026-04-12 11:12 | 56.96083 | 7.51505 | 39971 ft | 448 kts | 337° |
| 2026-04-12 11:12 | 57.01994 | 7.47649 | 39983 ft | 458 kts | 337° |
| 2026-04-12 11:13 | 57.08052 | 7.43687 | 39959 ft | 466 kts | 337° |
| 2026-04-12 11:13 | 57.11054 | 7.41718 | 39834 ft | 467 kts | 337° |
| 2026-04-12 11:13 | 57.14129 | 7.39698 | 39692 ft | 468 kts | 337° |
| 2026-04-12 11:14 | 57.17152 | 7.37707 | 39563 ft | 468 kts | 337° |
| 2026-04-12 11:14 | 57.20232 | 7.35677 | 39432 ft | 468 kts | 337° |
| 2026-04-12 11:14 | 57.23272 | 7.33669 | 39318 ft | 466 kts | 336° |
| 2026-04-12 11:14 | 57.26298 | 7.31668 | 39179 ft | 455 kts | 336° |
| 2026-04-12 11:15 | 57.29273 | 7.29695 | 39037 ft | 457 kts | 336° |
| 2026-04-12 11:15 | 57.32247 | 7.27719 | 38907 ft | 459 kts | 336° |
| 2026-04-12 11:15 | 57.35231 | 7.25734 | 38785 ft | 461 kts | 336° |
| 2026-04-12 11:15 | 57.38306 | 7.23684 | 38444 ft | 473 kts | 336° |
| 2026-04-12 11:16 | 57.41360 | 7.21646 | 38096 ft | 475 kts | 336° |
| 2026-04-12 11:16 | 57.44463 | 7.19572 | 37771 ft | 474 kts | 336° |
| 2026-04-12 11:16 | 57.47524 | 7.17521 | 37444 ft | 472 kts | 336° |
| 2026-04-12 11:16 | 57.50604 | 7.15454 | 37118 ft | 471 kts | 336° |
| 2026-04-12 11:17 | 57.53675 | 7.13389 | 36786 ft | 470 kts | 336° |
| 2026-04-12 11:17 | 57.56710 | 7.11345 | 36467 ft | 470 kts | 336° |
| 2026-04-12 11:17 | 57.59832 | 7.09239 | 36136 ft | 471 kts | 336° |
| 2026-04-12 11:17 | 57.62899 | 7.07166 | 35811 ft | 471 kts | 336° |
| 2026-04-12 11:18 | 57.65952 | 7.05098 | 35484 ft | 471 kts | 336° |
| 2026-04-12 11:18 | 57.69025 | 7.03014 | 35158 ft | 471 kts | 336° |
| 2026-04-12 11:18 | 57.72076 | 7.00939 | 34836 ft | 472 kts | 336° |
| 2026-04-12 11:18 | 57.75163 | 6.98837 | 34503 ft | 473 kts | 336° |
| 2026-04-12 11:19 | 57.78231 | 6.96745 | 34178 ft | 473 kts | 336° |
| 2026-04-12 11:19 | 57.81330 | 6.94627 | 33887 ft | 474 kts | 336° |
| 2026-04-12 11:19 | 57.84417 | 6.92515 | 33573 ft | 475 kts | 336° |
| 2026-04-12 11:19 | 57.87489 | 6.90407 | 33207 ft | 474 kts | 336° |
| 2026-04-12 11:20 | 57.90565 | 6.88293 | 32837 ft | 473 kts | 336° |
| 2026-04-12 11:20 | 57.93646 | 6.86174 | 32472 ft | 472 kts | 336° |
| 2026-04-12 11:20 | 57.96706 | 6.84063 | 32107 ft | 472 kts | 336° |
| 2026-04-12 11:20 | 57.99664 | 6.81534 | 31725 ft | 466 kts | 326° |
| 2026-04-12 11:21 | 58.02460 | 6.78529 | 31178 ft | 472 kts | 327° |
| 2026-04-12 11:21 | 58.05338 | 6.75650 | 30075 ft | 474 kts | 328° |
| 2026-04-12 11:21 | 58.08239 | 6.72816 | 29445 ft | 461 kts | 328° |
| 2026-04-12 11:21 | 58.11015 | 6.70115 | 28793 ft | 450 kts | 328° |
| 2026-04-12 11:22 | 58.13755 | 6.67447 | 28119 ft | 443 kts | 328° |
| 2026-04-12 11:22 | 58.16478 | 6.64793 | 27450 ft | 439 kts | 329° |
| 2026-04-12 11:22 | 58.19172 | 6.62164 | 26779 ft | 437 kts | 328° |
| 2026-04-12 11:22 | 58.21835 | 6.59560 | 26126 ft | 434 kts | 328° |
| 2026-04-12 11:23 | 58.24506 | 6.56944 | 25453 ft | 430 kts | 329° |
| 2026-04-12 11:23 | 58.27136 | 6.54364 | 24774 ft | 426 kts | 329° |
| 2026-04-12 11:23 | 58.29723 | 6.51821 | 24092 ft | 422 kts | 329° |
| 2026-04-12 11:23 | 58.32319 | 6.49266 | 23382 ft | 417 kts | 329° |
| 2026-04-12 11:24 | 58.34872 | 6.46749 | 22670 ft | 412 kts | 329° |
| 2026-04-12 11:24 | 58.37378 | 6.44275 | 21964 ft | 407 kts | 330° |
| 2026-04-12 11:24 | 58.39857 | 6.41824 | 21259 ft | 402 kts | 330° |
| 2026-04-12 11:24 | 58.42312 | 6.39391 | 20557 ft | 397 kts | 330° |
| 2026-04-12 11:25 | 58.44736 | 6.36984 | 19850 ft | 393 kts | 331° |
| 2026-04-12 11:25 | 58.47134 | 6.34602 | 19146 ft | 390 kts | 330° |
| 2026-04-12 11:25 | 58.49509 | 6.32239 | 18431 ft | 386 kts | 330° |
| 2026-04-12 11:25 | 58.51862 | 6.29895 | 17718 ft | 381 kts | 330° |
| 2026-04-12 11:26 | 58.54187 | 6.27573 | 17006 ft | 377 kts | 330° |
| 2026-04-12 11:26 | 58.56468 | 6.25293 | 16309 ft | 373 kts | 330° |
| 2026-04-12 11:26 | 58.58747 | 6.23010 | 15595 ft | 368 kts | 329° |
| 2026-04-12 11:26 | 58.61010 | 6.20743 | 14891 ft | 364 kts | 329° |
| 2026-04-12 11:27 | 58.63220 | 6.18523 | 14195 ft | 360 kts | 329° |
| 2026-04-12 11:27 | 58.65408 | 6.16322 | 13504 ft | 358 kts | 329° |
| 2026-04-12 11:27 | 58.67617 | 6.14096 | 12809 ft | 356 kts | 329° |
| 2026-04-12 11:27 | 58.69766 | 6.11930 | 12129 ft | 353 kts | 329° |
| 2026-04-12 11:28 | 58.71914 | 6.09761 | 11424 ft | 350 kts | 329° |
| 2026-04-12 11:28 | 58.74067 | 6.07583 | 10735 ft | 345 kts | 329° |
| 2026-04-12 11:28 | 58.76165 | 6.05459 | 10045 ft | 341 kts | 329° |
| 2026-04-12 11:28 | 58.78225 | 6.03369 | 9352 ft | 338 kts | 329° |
| 2026-04-12 11:29 | 58.80295 | 6.01267 | 8648 ft | 336 kts | 329° |
| 2026-04-12 11:29 | 58.82330 | 5.99197 | 7949 ft | 332 kts | 329° |
| 2026-04-12 11:29 | 58.84328 | 5.97165 | 7699 ft | 310 kts | 329° |
| 2026-04-12 11:29 | 58.86149 | 5.95311 | 7648 ft | 287 kts | 329° |
| 2026-04-12 11:30 | 58.87861 | 5.93564 | 7597 ft | 268 kts | 329° |
| 2026-04-12 11:30 | 58.89598 | 5.91781 | 7595 ft | 300 kts | 329° |
| 2026-04-12 11:30 | 58.91360 | 5.89984 | 7642 ft | 278 kts | 329° |
| 2026-04-12 11:30 | 58.93084 | 5.88216 | 7063 ft | 282 kts | 329° |
| 2026-04-12 11:31 | 58.94795 | 5.86462 | 6514 ft | 283 kts | 329° |
| 2026-04-12 11:31 | 58.96547 | 5.84660 | 5914 ft | 286 kts | 330° |
| 2026-04-12 11:31 | 58.98297 | 5.82861 | 5282 ft | 290 kts | 330° |
| 2026-04-12 11:31 | 59.00082 | 5.81023 | 4656 ft | 292 kts | 332° |
| 2026-04-12 11:32 | 59.01856 | 5.79195 | 4025 ft | 293 kts | 331° |
| 2026-04-12 11:32 | 59.03364 | 5.76648 | 3382 ft | 290 kts | 299° |
| 2026-04-12 11:32 | 59.03897 | 5.73104 | 3049 ft | 262 kts | 260° |
| 2026-04-12 11:32 | 59.03549 | 5.69836 | 2770 ft | 239 kts | 244° |
| 2026-04-12 11:33 | 59.03062 | 5.66881 | 2541 ft | 224 kts | 242° |
| 2026-04-12 11:33 | 59.02326 | 5.64541 | 2196 ft | 186 kts | 205° |
| 2026-04-12 11:33 | 59.01254 | 5.63887 | 2113 ft | 152 kts | 175° |
| 2026-04-12 11:33 | 59.00191 | 5.63748 | 2095 ft | 155 kts | 174° |
| 2026-04-12 11:34 | 58.99121 | 5.63663 | 2070 ft | 160 kts | 174° |
| 2026-04-12 11:34 | 58.98040 | 5.63527 | 1818 ft | 149 kts | 172° |
| 2026-04-12 11:34 | 58.97092 | 5.63499 | 1636 ft | 124 kts | 170° |
| 2026-04-12 11:34 | 58.96307 | 5.63509 | 1445 ft | 102 kts | 168° |
| 2026-04-12 11:35 | 58.95646 | 5.63527 | 1265 ft | 90 kts | 167° |
| 2026-04-12 11:35 | 58.95014 | 5.63554 | 1152 ft | 90 kts | 167° |
| 2026-04-12 11:35 | 58.94371 | 5.63545 | 1062 ft | 94 kts | 171° |
| 2026-04-12 11:35 | 58.93703 | 5.63488 | 959 ft | 97 kts | 172° |
| 2026-04-12 11:36 | 58.93051 | 5.63480 | 769 ft | 94 kts | 169° |
| 2026-04-12 11:36 | 58.92399 | 5.63529 | 657 ft | 92 kts | 168° |
| 2026-04-12 11:36 | 58.91755 | 5.63601 | 557 ft | 93 kts | 168° |
| 2026-04-12 11:36 | 58.91096 | 5.63655 | 421 ft | 95 kts | 171° |
| 2026-04-12 11:37 | 58.90430 | 5.63672 | 299 ft | 94 kts | 170° |
| 2026-04-12 11:37 | 58.89777 | 5.63722 | 164 ft | 95 kts | 172° |
| 2026-04-12 11:37 | 58.89106 | 5.63735 | 21 ft | 94 kts | 175° |
| 2026-04-12 11:37 | 58.88580 | 5.63751 | 30 ft | 54 kts | 178° |
| 2026-04-12 11:38 | 58.88329 | 5.63765 | 30 ft | 24 kts | 180° |
| 2026-04-12 11:38 | 58.88158 | 5.63766 | 31 ft | 24 kts | 179° |
| 2026-04-12 11:38 | 58.87987 | 5.63771 | 31 ft | 24 kts | 178° |
| 2026-04-12 11:38 | 58.87806 | 5.63778 | 29 ft | 26 kts | 178° |
| 2026-04-12 11:39 | 58.87697 | 5.63780 | 29 ft | 13 kts | 178° |
| 2026-04-12 11:39 | 58.87599 | 5.63782 | 29 ft | 15 kts | 178° |
| 2026-04-12 11:39 | 58.87473 | 5.63785 | 29 ft | 19 kts | 179° |
| 2026-04-12 11:39 | 58.87329 | 5.63793 | 29 ft | 22 kts | 178° |
| 2026-04-12 11:40 | 58.87225 | 5.63791 | 31 ft | 22 kts | 182° |
| 2026-04-12 11:40 | 58.87049 | 5.63699 | 32 ft | 14 kts | 244° |
| 2026-04-12 11:40 | 58.87014 | 5.63552 | 30 ft | 11 kts | 242° |
| 2026-04-12 11:40 | 58.87008 | 5.63391 | 29 ft | 13 kts | 299° |
| 2026-04-12 11:41 | 58.87088 | 5.63308 | 28 ft | 14 kts | 355° |
| 2026-04-12 11:41 | 58.87198 | 5.63305 | 26 ft | 17 kts | 0° |
| 2026-04-12 11:41 | 58.87323 | 5.63300 | 26 ft | 18 kts | 358° |
| 2026-04-12 11:41 | 58.87460 | 5.63292 | 26 ft | 20 kts | 359° |
| 2026-04-12 11:42 | 58.87590 | 5.63291 | 26 ft | 13 kts | 0° |
| 2026-04-12 11:42 | 58.87694 | 5.63291 | 26 ft | 16 kts | 359° |
| 2026-04-12 11:42 | 58.87803 | 5.63288 | 26 ft | 12 kts | 1° |
| 2026-04-12 11:43 | 58.87892 | 5.63328 | 27 ft | 0 kts | 24° |
| 2026-04-12 11:43 | 58.87903 | 5.63337 | 28 ft | 3 kts | 23° |
| 2026-04-12 11:43 | 58.87934 | 5.63362 | 29 ft | 5 kts | 23° |
| 2026-04-12 11:44 | 58.87976 | 5.63396 | 29 ft | 7 kts | 24° |
| 2026-04-12 11:44 | 58.88036 | 5.63437 | 29 ft | 10 kts | 7° |
| 2026-04-12 11:44 | 58.88118 | 5.63436 | 29 ft | 13 kts | 360° |
| 2026-04-12 11:44 | 58.88185 | 5.63434 | 30 ft | 7 kts | 358° |
| 2026-04-12 11:45 | 58.88209 | 5.63432 | 30 ft | 1 kts | 359° |
| 2026-04-12 11:45 | 58.88225 | 5.63432 | 31 ft | 3 kts | 1° |
| 2026-04-12 11:45 | 58.88250 | 5.63432 | 31 ft | 3 kts | 356° |
| 2026-04-12 11:45 | 58.88272 | 5.63401 | 32 ft | 5 kts | 291° |
| 2026-04-12 11:46 | 58.88284 | 5.63308 | 31 ft | 9 kts | 299° |
| 2026-04-12 11:46 | 58.88294 | 5.63197 | 30 ft | 5 kts | 254° |
| 2026-04-12 11:46 | 58.88284 | 5.63125 | 30 ft | 4 kts | 255° |
| 2026-04-12 11:46 | 58.88278 | 5.63083 | 30 ft | 0 kts | 254° |